sensor_id;sensor_type;location;lat;lon;timestamp;temperature;humidity
12438;DHT22;6283;51.330;12.374;2023-02-03T00:01:11;3.50;1.00
12438;DHT22;6283;51.330;12.374;2023-02-03T00:03:37;3.50;1.00
12438;DHT22;6283;51.330;12.374;2023-02-03T00:06:03;3.70;1.00
12438;DHT22;6283;51.330;12.374;2023-02-03T00:08:29;3.80;1.00
12438;DHT22;6283;51.330;12.374;2023-02-03T00:10:55;3.50;1.00
12438;DHT22;6283;51.330;12.374;2023-02-03T00:13:21;3.50;1.00
12438;DHT22;6283;51.330;12.374;2023-02-03T00:15:46;3.60;1.00
12438;DHT22;6283;51.330;12.374;2023-02-03T00:18:12;3.70;1.00
12438;DHT22;6283;51.330;12.374;2023-02-03T00:20:38;3.70;1.00
12438;DHT22;6283;51.330;12.374;2023-02-03T00:23:05;3.60;1.00
12438;DHT22;6283;51.330;12.374;2023-02-03T00:25:31;3.60;1.00
12438;DHT22;6283;51.330;12.374;2023-02-03T00:27:56;3.60;1.00
12438;DHT22;6283;51.330;12.374;2023-02-03T00:30:22;4.10;1.00
12438;DHT22;6283;51.330;12.374;2023-02-03T00:32:47;3.70;1.00
12438;DHT22;6283;51.330;12.374;2023-02-03T00:35:13;4.00;1.00
12438;DHT22;6283;51.330;12.374;2023-02-03T00:37:39;3.80;1.00
12438;DHT22;6283;51.330;12.374;2023-02-03T00:40:05;3.90;1.00
12438;DHT22;6283;51.330;12.374;2023-02-03T00:42:30;4.00;1.00
12438;DHT22;6283;51.330;12.374;2023-02-03T00:44:56;3.80;1.00
12438;DHT22;6283;51.330;12.374;2023-02-03T00:47:22;4.00;1.00
12438;DHT22;6283;51.330;12.374;2023-02-03T00:49:47;4.00;1.00
12438;DHT22;6283;51.330;12.374;2023-02-03T00:52:15;3.70;1.00
12438;DHT22;6283;51.330;12.374;2023-02-03T00:54:40;3.80;1.00
12438;DHT22;6283;51.330;12.374;2023-02-03T00:57:06;3.80;1.00
12438;DHT22;6283;51.330;12.374;2023-02-03T00:59:31;3.70;1.00
12438;DHT22;6283;51.330;12.374;2023-02-03T01:01:57;3.90;1.00
12438;DHT22;6283;51.330;12.374;2023-02-03T01:04:23;3.90;1.00
12438;DHT22;6283;51.330;12.374;2023-02-03T01:06:48;3.80;1.00
12438;DHT22;6283;51.330;12.374;2023-02-03T01:09:14;3.70;1.00
12438;DHT22;6283;51.330;12.374;2023-02-03T01:11:39;3.70;1.00
12438;DHT22;6283;51.330;12.374;2023-02-03T01:14:05;3.80;1.00
12438;DHT22;6283;51.330;12.374;2023-02-03T01:16:31;3.70;1.00
12438;DHT22;6283;51.330;12.374;2023-02-03T01:19:00;3.70;1.00
12438;DHT22;6283;51.330;12.374;2023-02-03T01:21:26;3.60;1.00
12438;DHT22;6283;51.330;12.374;2023-02-03T01:23:52;3.90;1.00
12438;DHT22;6283;51.330;12.374;2023-02-03T01:26:20;3.80;1.00
12438;DHT22;6283;51.330;12.374;2023-02-03T01:29:04;4.00;1.00
12438;DHT22;6283;51.330;12.374;2023-02-03T01:31:32;4.00;1.00
12438;DHT22;6283;51.330;12.374;2023-02-03T01:34:00;3.70;1.00
12438;DHT22;6283;51.330;12.374;2023-02-03T01:36:28;3.90;1.00
12438;DHT22;6283;51.330;12.374;2023-02-03T01:38:54;3.90;1.00
12438;DHT22;6283;51.330;12.374;2023-02-03T01:41:22;4.10;1.00
12438;DHT22;6283;51.330;12.374;2023-02-03T01:43:51;3.90;1.00
12438;DHT22;6283;51.330;12.374;2023-02-03T01:46:33;3.80;1.00
12438;DHT22;6283;51.330;12.374;2023-02-03T01:49:30;4.20;1.00
12438;DHT22;6283;51.330;12.374;2023-02-03T01:51:58;4.20;1.00
12438;DHT22;6283;51.330;12.374;2023-02-03T01:54:29;4.00;1.00
12438;DHT22;6283;51.330;12.374;2023-02-03T01:57:00;4.20;1.00
12438;DHT22;6283;51.330;12.374;2023-02-03T01:59:29;4.10;1.00
12438;DHT22;6283;51.330;12.374;2023-02-03T02:01:55;4.20;1.00
12438;DHT22;6283;51.330;12.374;2023-02-03T02:04:25;4.20;1.00
12438;DHT22;6283;51.330;12.374;2023-02-03T02:06:57;4.10;1.00
12438;DHT22;6283;51.330;12.374;2023-02-03T02:09:24;4.30;1.00
12438;DHT22;6283;51.330;12.374;2023-02-03T02:11:50;4.00;1.00
12438;DHT22;6283;51.330;12.374;2023-02-03T02:14:19;4.30;1.00
12438;DHT22;6283;51.330;12.374;2023-02-03T02:22:23;4.30;1.00
12438;DHT22;6283;51.330;12.374;2023-02-03T02:28:03;4.50;1.00
12438;DHT22;6283;51.330;12.374;2023-02-03T02:33:57;4.50;1.00
12438;DHT22;6283;51.330;12.374;2023-02-03T02:36:32;4.50;1.00
12438;DHT22;6283;51.330;12.374;2023-02-03T02:39:06;4.60;1.00
12438;DHT22;6283;51.330;12.374;2023-02-03T02:41:41;4.60;1.00
12438;DHT22;6283;51.330;12.374;2023-02-03T02:44:16;4.60;1.00
12438;DHT22;6283;51.330;12.374;2023-02-03T02:46:49;4.70;1.00
12438;DHT22;6283;51.330;12.374;2023-02-03T02:49:30;4.50;1.00
12438;DHT22;6283;51.330;12.374;2023-02-03T02:52:00;4.90;1.00
12438;DHT22;6283;51.330;12.374;2023-02-03T02:54:30;4.70;1.00
12438;DHT22;6283;51.330;12.374;2023-02-03T02:56:59;5.00;1.00
12438;DHT22;6283;51.330;12.374;2023-02-03T02:59:25;4.90;1.00
12438;DHT22;6283;51.330;12.374;2023-02-03T03:01:51;5.00;1.00
12438;DHT22;6283;51.330;12.374;2023-02-03T03:04:21;5.20;1.00
12438;DHT22;6283;51.330;12.374;2023-02-03T03:06:53;5.20;1.00
12438;DHT22;6283;51.330;12.374;2023-02-03T03:09:24;5.50;1.00
12438;DHT22;6283;51.330;12.374;2023-02-03T03:11:57;5.40;1.00
12438;DHT22;6283;51.330;12.374;2023-02-03T03:14:25;5.70;1.00
12438;DHT22;6283;51.330;12.374;2023-02-03T03:16:59;5.60;1.00
12438;DHT22;6283;51.330;12.374;2023-02-03T03:19:33;5.80;1.00
12438;DHT22;6283;51.330;12.374;2023-02-03T03:22:03;5.70;1.00
12438;DHT22;6283;51.330;12.374;2023-02-03T03:24:33;5.80;1.00
12438;DHT22;6283;51.330;12.374;2023-02-03T03:27:23;6.00;1.00
12438;DHT22;6283;51.330;12.374;2023-02-03T03:29:56;5.80;1.00
12438;DHT22;6283;51.330;12.374;2023-02-03T03:32:23;5.80;1.00
12438;DHT22;6283;51.330;12.374;2023-02-03T03:34:49;5.90;1.00
12438;DHT22;6283;51.330;12.374;2023-02-03T03:37:27;5.80;1.00
12438;DHT22;6283;51.330;12.374;2023-02-03T03:45:11;6.00;1.00
12438;DHT22;6283;51.330;12.374;2023-02-03T03:47:46;6.00;1.00
12438;DHT22;6283;51.330;12.374;2023-02-03T03:50:22;6.10;1.00
12438;DHT22;6283;51.330;12.374;2023-02-03T03:52:51;6.20;1.00
12438;DHT22;6283;51.330;12.374;2023-02-03T03:55:18;6.20;1.00
12438;DHT22;6283;51.330;12.374;2023-02-03T03:57:57;6.10;1.00
12438;DHT22;6283;51.330;12.374;2023-02-03T04:00:24;6.10;1.00
12438;DHT22;6283;51.330;12.374;2023-02-03T04:02:53;6.10;1.00
12438;DHT22;6283;51.330;12.374;2023-02-03T04:05:21;6.10;1.00
12438;DHT22;6283;51.330;12.374;2023-02-03T04:07:47;6.50;1.00
12438;DHT22;6283;51.330;12.374;2023-02-03T04:12:53;6.70;1.00
12438;DHT22;6283;51.330;12.374;2023-02-03T04:15:19;6.80;1.00
12438;DHT22;6283;51.330;12.374;2023-02-03T04:17:44;6.70;1.00
12438;DHT22;6283;51.330;12.374;2023-02-03T04:20:10;6.80;1.00
12438;DHT22;6283;51.330;12.374;2023-02-03T04:22:36;6.90;1.00
12438;DHT22;6283;51.330;12.374;2023-02-03T04:25:02;7.00;1.00
12438;DHT22;6283;51.330;12.374;2023-02-03T04:27:27;7.00;1.00
12438;DHT22;6283;51.330;12.374;2023-02-03T04:29:53;7.00;1.00
12438;DHT22;6283;51.330;12.374;2023-02-03T04:32:19;7.10;1.00
12438;DHT22;6283;51.330;12.374;2023-02-03T04:34:45;7.20;1.00
12438;DHT22;6283;51.330;12.374;2023-02-03T04:37:10;7.00;1.00
12438;DHT22;6283;51.330;12.374;2023-02-03T04:39:36;7.30;1.00
12438;DHT22;6283;51.330;12.374;2023-02-03T04:42:02;7.20;1.00
12438;DHT22;6283;51.330;12.374;2023-02-03T04:44:27;7.10;1.00
12438;DHT22;6283;51.330;12.374;2023-02-03T04:46:53;7.40;1.00
12438;DHT22;6283;51.330;12.374;2023-02-03T04:49:18;7.30;1.00
12438;DHT22;6283;51.330;12.374;2023-02-03T04:51:44;7.40;1.00
12438;DHT22;6283;51.330;12.374;2023-02-03T04:54:12;7.30;1.00
12438;DHT22;6283;51.330;12.374;2023-02-03T04:56:38;7.30;1.00
12438;DHT22;6283;51.330;12.374;2023-02-03T04:59:03;7.50;1.00
12438;DHT22;6283;51.330;12.374;2023-02-03T05:01:29;7.30;1.00
12438;DHT22;6283;51.330;12.374;2023-02-03T05:03:55;7.40;1.00
12438;DHT22;6283;51.330;12.374;2023-02-03T05:06:24;7.50;1.00
12438;DHT22;6283;51.330;12.374;2023-02-03T05:08:51;7.40;1.00
12438;DHT22;6283;51.330;12.374;2023-02-03T05:11:17;7.30;1.00
12438;DHT22;6283;51.330;12.374;2023-02-03T05:13:43;7.40;1.00
12438;DHT22;6283;51.330;12.374;2023-02-03T05:16:08;7.30;1.00
12438;DHT22;6283;51.330;12.374;2023-02-03T05:18:34;7.40;1.00
12438;DHT22;6283;51.330;12.374;2023-02-03T05:21:00;7.30;1.00
12438;DHT22;6283;51.330;12.374;2023-02-03T05:23:25;7.20;1.00
12438;DHT22;6283;51.330;12.374;2023-02-03T05:25:51;7.30;1.00
12438;DHT22;6283;51.330;12.374;2023-02-03T05:28:16;7.30;1.00
12438;DHT22;6283;51.330;12.374;2023-02-03T05:30:42;7.30;1.00
12438;DHT22;6283;51.330;12.374;2023-02-03T05:33:08;7.50;1.00
12438;DHT22;6283;51.330;12.374;2023-02-03T05:35:34;7.30;1.00
12438;DHT22;6283;51.330;12.374;2023-02-03T05:38:00;7.40;1.00
12438;DHT22;6283;51.330;12.374;2023-02-03T05:40:26;7.40;1.00
12438;DHT22;6283;51.330;12.374;2023-02-03T05:43:10;7.30;1.00
12438;DHT22;6283;51.330;12.374;2023-02-03T05:45:35;7.50;1.00
12438;DHT22;6283;51.330;12.374;2023-02-03T05:48:01;7.40;1.00
12438;DHT22;6283;51.330;12.374;2023-02-03T05:50:28;7.60;1.00
12438;DHT22;6283;51.330;12.374;2023-02-03T05:52:58;7.50;1.00
12438;DHT22;6283;51.330;12.374;2023-02-03T05:55:24;7.80;1.00
12438;DHT22;6283;51.330;12.374;2023-02-03T05:57:50;7.60;1.00
12438;DHT22;6283;51.330;12.374;2023-02-03T06:00:16;7.50;1.00
12438;DHT22;6283;51.330;12.374;2023-02-03T06:02:42;7.50;1.00
12438;DHT22;6283;51.330;12.374;2023-02-03T06:05:08;7.80;1.00
12438;DHT22;6283;51.330;12.374;2023-02-03T06:07:33;7.50;1.00
12438;DHT22;6283;51.330;12.374;2023-02-03T06:09:59;7.70;1.00
12438;DHT22;6283;51.330;12.374;2023-02-03T06:12:24;7.40;1.00
12438;DHT22;6283;51.330;12.374;2023-02-03T06:14:50;7.70;1.00
12438;DHT22;6283;51.330;12.374;2023-02-03T06:17:16;7.70;1.00
12438;DHT22;6283;51.330;12.374;2023-02-03T06:19:41;7.60;1.00
12438;DHT22;6283;51.330;12.374;2023-02-03T06:22:07;7.60;1.00
12438;DHT22;6283;51.330;12.374;2023-02-03T06:24:32;7.60;1.00
12438;DHT22;6283;51.330;12.374;2023-02-03T06:26:58;7.70;1.00
12438;DHT22;6283;51.330;12.374;2023-02-03T06:29:23;7.60;1.00
12438;DHT22;6283;51.330;12.374;2023-02-03T06:31:49;7.90;1.00
12438;DHT22;6283;51.330;12.374;2023-02-03T06:34:14;7.60;1.00
12438;DHT22;6283;51.330;12.374;2023-02-03T06:36:40;7.60;1.00
12438;DHT22;6283;51.330;12.374;2023-02-03T06:39:06;7.70;1.00
12438;DHT22;6283;51.330;12.374;2023-02-03T06:41:31;7.70;1.00
12438;DHT22;6283;51.330;12.374;2023-02-03T06:43:57;7.70;1.00
12438;DHT22;6283;51.330;12.374;2023-02-03T06:46:23;7.60;1.00
12438;DHT22;6283;51.330;12.374;2023-02-03T06:48:53;7.90;1.00
12438;DHT22;6283;51.330;12.374;2023-02-03T06:51:19;7.90;1.00
12438;DHT22;6283;51.330;12.374;2023-02-03T06:53:44;7.80;1.00
12438;DHT22;6283;51.330;12.374;2023-02-03T06:56:10;8.00;1.00
12438;DHT22;6283;51.330;12.374;2023-02-03T06:58:36;8.00;1.00
12438;DHT22;6283;51.330;12.374;2023-02-03T07:01:01;7.70;1.00
12438;DHT22;6283;51.330;12.374;2023-02-03T07:03:27;7.90;1.00
12438;DHT22;6283;51.330;12.374;2023-02-03T07:05:52;8.10;1.00
12438;DHT22;6283;51.330;12.374;2023-02-03T07:08:18;8.00;1.00
12438;DHT22;6283;51.330;12.374;2023-02-03T07:10:44;7.90;1.00
12438;DHT22;6283;51.330;12.374;2023-02-03T07:13:09;8.00;1.00
12438;DHT22;6283;51.330;12.374;2023-02-03T07:15:35;8.10;1.00
12438;DHT22;6283;51.330;12.374;2023-02-03T07:18:00;7.90;1.00
12438;DHT22;6283;51.330;12.374;2023-02-03T07:20:26;8.10;1.00
12438;DHT22;6283;51.330;12.374;2023-02-03T07:22:56;8.00;1.00
12438;DHT22;6283;51.330;12.374;2023-02-03T07:25:23;8.20;1.00
12438;DHT22;6283;51.330;12.374;2023-02-03T07:27:49;8.20;1.00
12438;DHT22;6283;51.330;12.374;2023-02-03T07:30:15;8.00;1.00
12438;DHT22;6283;51.330;12.374;2023-02-03T07:32:41;8.20;1.00
12438;DHT22;6283;51.330;12.374;2023-02-03T07:35:10;8.20;1.00
12438;DHT22;6283;51.330;12.374;2023-02-03T07:37:36;8.10;1.00
12438;DHT22;6283;51.330;12.374;2023-02-03T07:40:01;8.40;1.00
12438;DHT22;6283;51.330;12.374;2023-02-03T07:42:27;8.00;1.00
12438;DHT22;6283;51.330;12.374;2023-02-03T07:44:52;8.30;1.00
12438;DHT22;6283;51.330;12.374;2023-02-03T07:47:18;8.10;1.00
12438;DHT22;6283;51.330;12.374;2023-02-03T07:49:43;8.30;1.00
12438;DHT22;6283;51.330;12.374;2023-02-03T07:52:09;8.20;1.00
12438;DHT22;6283;51.330;12.374;2023-02-03T07:54:34;8.40;1.00
12438;DHT22;6283;51.330;12.374;2023-02-03T07:57:00;8.20;1.00
12438;DHT22;6283;51.330;12.374;2023-02-03T07:59:26;8.40;1.00
12438;DHT22;6283;51.330;12.374;2023-02-03T08:01:51;8.50;1.00
12438;DHT22;6283;51.330;12.374;2023-02-03T08:04:21;8.50;1.00
12438;DHT22;6283;51.330;12.374;2023-02-03T08:06:46;8.20;1.00
12438;DHT22;6283;51.330;12.374;2023-02-03T08:09:12;8.70;1.00
12438;DHT22;6283;51.330;12.374;2023-02-03T08:11:37;8.50;1.00
12438;DHT22;6283;51.330;12.374;2023-02-03T08:14:03;8.60;1.00
12438;DHT22;6283;51.330;12.374;2023-02-03T08:16:29;8.50;1.00
12438;DHT22;6283;51.330;12.374;2023-02-03T08:18:54;8.40;1.00
12438;DHT22;6283;51.330;12.374;2023-02-03T08:21:20;8.40;1.00
12438;DHT22;6283;51.330;12.374;2023-02-03T08:23:46;8.40;1.00
12438;DHT22;6283;51.330;12.374;2023-02-03T08:26:11;8.50;1.00
12438;DHT22;6283;51.330;12.374;2023-02-03T08:28:37;8.60;1.00
12438;DHT22;6283;51.330;12.374;2023-02-03T08:31:09;8.40;1.00
12438;DHT22;6283;51.330;12.374;2023-02-03T08:33:34;8.50;1.00
12438;DHT22;6283;51.330;12.374;2023-02-03T08:36:00;8.50;1.00
12438;DHT22;6283;51.330;12.374;2023-02-03T08:38:27;8.60;1.00
12438;DHT22;6283;51.330;12.374;2023-02-03T08:40:52;8.60;1.00
12438;DHT22;6283;51.330;12.374;2023-02-03T08:43:19;8.60;1.00
12438;DHT22;6283;51.330;12.374;2023-02-03T08:45:45;8.50;1.00
12438;DHT22;6283;51.330;12.374;2023-02-03T08:48:10;8.60;1.00
12438;DHT22;6283;51.330;12.374;2023-02-03T08:50:36;8.80;1.00
12438;DHT22;6283;51.330;12.374;2023-02-03T08:53:02;8.70;1.00
12438;DHT22;6283;51.330;12.374;2023-02-03T08:55:28;8.80;1.00
12438;DHT22;6283;51.330;12.374;2023-02-03T08:57:53;8.60;1.00
12438;DHT22;6283;51.330;12.374;2023-02-03T09:00:19;8.80;1.00
12438;DHT22;6283;51.330;12.374;2023-02-03T09:02:45;8.70;1.00
12438;DHT22;6283;51.330;12.374;2023-02-03T09:05:10;8.60;1.00
12438;DHT22;6283;51.330;12.374;2023-02-03T09:07:36;8.80;1.00
12438;DHT22;6283;51.330;12.374;2023-02-03T09:10:02;8.90;1.00
12438;DHT22;6283;51.330;12.374;2023-02-03T09:12:28;8.90;1.00
12438;DHT22;6283;51.330;12.374;2023-02-03T09:14:53;8.80;1.00
12438;DHT22;6283;51.330;12.374;2023-02-03T09:17:19;8.90;1.00
12438;DHT22;6283;51.330;12.374;2023-02-03T09:19:45;8.60;1.00
12438;DHT22;6283;51.330;12.374;2023-02-03T09:22:10;9.00;1.00
12438;DHT22;6283;51.330;12.374;2023-02-03T09:24:36;8.80;1.00
12438;DHT22;6283;51.330;12.374;2023-02-03T09:27:01;8.80;1.00
12438;DHT22;6283;51.330;12.374;2023-02-03T09:29:27;8.90;1.00
12438;DHT22;6283;51.330;12.374;2023-02-03T09:31:53;8.90;1.00
12438;DHT22;6283;51.330;12.374;2023-02-03T09:34:19;9.00;1.00
12438;DHT22;6283;51.330;12.374;2023-02-03T09:36:46;9.10;1.00
12438;DHT22;6283;51.330;12.374;2023-02-03T09:39:12;8.90;1.00
12438;DHT22;6283;51.330;12.374;2023-02-03T09:41:59;9.00;1.00
12438;DHT22;6283;51.330;12.374;2023-02-03T09:47:31;9.20;1.00
12438;DHT22;6283;51.330;12.374;2023-02-03T09:50:05;8.90;1.00
12438;DHT22;6283;51.330;12.374;2023-02-03T09:52:34;9.20;1.00
12438;DHT22;6283;51.330;12.374;2023-02-03T09:58:05;8.90;1.00
12438;DHT22;6283;51.330;12.374;2023-02-03T10:00:51;9.10;1.00
12438;DHT22;6283;51.330;12.374;2023-02-03T10:03:35;8.80;1.00
12438;DHT22;6283;51.330;12.374;2023-02-03T10:06:09;8.90;1.00
12438;DHT22;6283;51.330;12.374;2023-02-03T10:08:59;9.00;1.00
12438;DHT22;6283;51.330;12.374;2023-02-03T10:19:55;8.90;1.00
12438;DHT22;6283;51.330;12.374;2023-02-03T10:22:25;9.10;1.00
12438;DHT22;6283;51.330;12.374;2023-02-03T10:25:15;8.80;1.00
12438;DHT22;6283;51.330;12.374;2023-02-03T10:27:43;8.90;1.00
12438;DHT22;6283;51.330;12.374;2023-02-03T10:32:43;8.90;1.00
12438;DHT22;6283;51.330;12.374;2023-02-03T10:35:12;8.70;1.00
12438;DHT22;6283;51.330;12.374;2023-02-03T10:37:48;8.70;1.00
12438;DHT22;6283;51.330;12.374;2023-02-03T10:40:15;8.80;1.00
12438;DHT22;6283;51.330;12.374;2023-02-03T10:42:43;8.90;1.00
12438;DHT22;6283;51.330;12.374;2023-02-03T10:45:28;8.90;1.00
12438;DHT22;6283;51.330;12.374;2023-02-03T10:47:56;8.90;1.00
12438;DHT22;6283;51.330;12.374;2023-02-03T10:50:24;8.80;1.00
12438;DHT22;6283;51.330;12.374;2023-02-03T10:55:46;8.90;1.00
12438;DHT22;6283;51.330;12.374;2023-02-03T10:58:26;8.90;1.00
12438;DHT22;6283;51.330;12.374;2023-02-03T11:03:37;8.80;1.00
12438;DHT22;6283;51.330;12.374;2023-02-03T11:06:15;8.80;1.00
12438;DHT22;6283;51.330;12.374;2023-02-03T11:08:50;8.70;1.00
12438;DHT22;6283;51.330;12.374;2023-02-03T11:11:27;8.80;1.00
12438;DHT22;6283;51.330;12.374;2023-02-03T11:16:27;8.80;1.00
12438;DHT22;6283;51.330;12.374;2023-02-03T11:21:41;8.90;1.00
12438;DHT22;6283;51.330;12.374;2023-02-03T11:24:20;8.70;1.00
12438;DHT22;6283;51.330;12.374;2023-02-03T11:26:57;8.90;1.00
12438;DHT22;6283;51.330;12.374;2023-02-03T11:29:27;8.70;1.00
12438;DHT22;6283;51.330;12.374;2023-02-03T11:32:05;8.70;1.00
12438;DHT22;6283;51.330;12.374;2023-02-03T11:34:39;8.60;1.00
12438;DHT22;6283;51.330;12.374;2023-02-03T11:37:27;8.60;1.00
12438;DHT22;6283;51.330;12.374;2023-02-03T11:42:45;8.30;1.00
12438;DHT22;6283;51.330;12.374;2023-02-03T11:51:11;8.30;1.00
12438;DHT22;6283;51.330;12.374;2023-02-03T11:54:01;8.30;1.00
12438;DHT22;6283;51.330;12.374;2023-02-03T11:56:34;8.40;1.00
12438;DHT22;6283;51.330;12.374;2023-02-03T11:59:54;8.40;1.00
12438;DHT22;6283;51.330;12.374;2023-02-03T12:08:06;8.40;1.00
12438;DHT22;6283;51.330;12.374;2023-02-03T12:11:09;8.70;1.00
12438;DHT22;6283;51.330;12.374;2023-02-03T12:19:31;8.80;1.00
12438;DHT22;6283;51.330;12.374;2023-02-03T12:28:00;8.70;1.00
12438;DHT22;6283;51.330;12.374;2023-02-03T12:30:36;8.80;1.00
12438;DHT22;6283;51.330;12.374;2023-02-03T12:33:19;8.90;1.00
12438;DHT22;6283;51.330;12.374;2023-02-03T12:35:51;9.00;1.00
12438;DHT22;6283;51.330;12.374;2023-02-03T12:38:21;8.70;1.00
12438;DHT22;6283;51.330;12.374;2023-02-03T12:40:54;8.80;1.00
12438;DHT22;6283;51.330;12.374;2023-02-03T12:46:00;8.80;1.00
12438;DHT22;6283;51.330;12.374;2023-02-03T12:51:12;8.90;1.00
12438;DHT22;6283;51.330;12.374;2023-02-03T12:53:44;8.90;1.00
12438;DHT22;6283;51.330;12.374;2023-02-03T12:56:20;8.90;1.00
12438;DHT22;6283;51.330;12.374;2023-02-03T12:58:50;8.80;1.00
12438;DHT22;6283;51.330;12.374;2023-02-03T13:01:27;8.90;1.00
12438;DHT22;6283;51.330;12.374;2023-02-03T13:03:59;8.80;1.00
12438;DHT22;6283;51.330;12.374;2023-02-03T13:12:13;9.30;1.00
12438;DHT22;6283;51.330;12.374;2023-02-03T13:17:16;9.50;1.00
12438;DHT22;6283;51.330;12.374;2023-02-03T13:19:48;9.60;1.00
12438;DHT22;6283;51.330;12.374;2023-02-03T13:22:15;9.50;1.00
12438;DHT22;6283;51.330;12.374;2023-02-03T13:30:55;9.60;1.00
12438;DHT22;6283;51.330;12.374;2023-02-03T13:36:38;9.50;1.00
12438;DHT22;6283;51.330;12.374;2023-02-03T13:41:56;9.20;1.00
12438;DHT22;6283;51.330;12.374;2023-02-03T13:44:32;9.60;1.00
12438;DHT22;6283;51.330;12.374;2023-02-03T13:46:59;9.30;1.00
12438;DHT22;6283;51.330;12.374;2023-02-03T13:49:32;9.20;1.00
12438;DHT22;6283;51.330;12.374;2023-02-03T13:51:59;9.20;1.00
12438;DHT22;6283;51.330;12.374;2023-02-03T13:54:34;9.30;1.00
12438;DHT22;6283;51.330;12.374;2023-02-03T13:57:15;9.20;1.00
12438;DHT22;6283;51.330;12.374;2023-02-03T13:59:44;9.40;1.00
12438;DHT22;6283;51.330;12.374;2023-02-03T14:07:32;9.30;1.00
12438;DHT22;6283;51.330;12.374;2023-02-03T14:15:21;7.80;1.00
12438;DHT22;6283;51.330;12.374;2023-02-03T14:25:43;6.60;1.00
12438;DHT22;6283;51.330;12.374;2023-02-03T14:28:18;6.60;1.00
12438;DHT22;6283;51.330;12.374;2023-02-03T14:36:35;6.80;1.00
12438;DHT22;6283;51.330;12.374;2023-02-03T14:52:27;6.90;1.00
12438;DHT22;6283;51.330;12.374;2023-02-03T14:57:54;7.20;1.00
12438;DHT22;6283;51.330;12.374;2023-02-03T15:00:27;7.10;1.00
12438;DHT22;6283;51.330;12.374;2023-02-03T15:05:49;7.10;1.00
12438;DHT22;6283;51.330;12.374;2023-02-03T15:13:45;7.40;1.00
12438;DHT22;6283;51.330;12.374;2023-02-03T15:16:15;7.40;1.00
12438;DHT22;6283;51.330;12.374;2023-02-03T15:18:42;7.30;1.00
12438;DHT22;6283;51.330;12.374;2023-02-03T15:21:17;7.60;1.00
12438;DHT22;6283;51.330;12.374;2023-02-03T15:23:44;7.50;1.00
12438;DHT22;6283;51.330;12.374;2023-02-03T15:26:16;7.80;1.00
12438;DHT22;6283;51.330;12.374;2023-02-03T15:28:58;8.10;1.00
12438;DHT22;6283;51.330;12.374;2023-02-03T15:34:03;8.20;1.00
12438;DHT22;6283;51.330;12.374;2023-02-03T15:36:39;8.40;1.00
12438;DHT22;6283;51.330;12.374;2023-02-03T15:39:15;8.50;1.00
12438;DHT22;6283;51.330;12.374;2023-02-03T15:41:45;8.60;1.00
12438;DHT22;6283;51.330;12.374;2023-02-03T15:44:25;8.70;1.00
12438;DHT22;6283;51.330;12.374;2023-02-03T15:46:52;8.80;1.00
12438;DHT22;6283;51.330;12.374;2023-02-03T15:49:42;8.60;1.00
12438;DHT22;6283;51.330;12.374;2023-02-03T15:52:15;8.60;1.00
12438;DHT22;6283;51.330;12.374;2023-02-03T15:54:44;8.60;1.00
12438;DHT22;6283;51.330;12.374;2023-02-03T15:57:22;8.60;1.00
12438;DHT22;6283;51.330;12.374;2023-02-03T15:59:58;8.70;1.00
12438;DHT22;6283;51.330;12.374;2023-02-03T16:02:30;8.90;1.00
12438;DHT22;6283;51.330;12.374;2023-02-03T16:05:15;8.80;1.00
12438;DHT22;6283;51.330;12.374;2023-02-03T16:07:42;8.80;1.00
12438;DHT22;6283;51.330;12.374;2023-02-03T16:10:33;8.80;1.00
12438;DHT22;6283;51.330;12.374;2023-02-03T16:13:25;8.80;1.00
12438;DHT22;6283;51.330;12.374;2023-02-03T16:16:13;8.70;1.00
12438;DHT22;6283;51.330;12.374;2023-02-03T16:18:40;8.90;1.00
12438;DHT22;6283;51.330;12.374;2023-02-03T16:21:35;8.80;1.00
12438;DHT22;6283;51.330;12.374;2023-02-03T16:24:03;8.70;1.00
12438;DHT22;6283;51.330;12.374;2023-02-03T16:26:30;8.80;1.00
12438;DHT22;6283;51.330;12.374;2023-02-03T16:31:47;8.90;1.00
12438;DHT22;6283;51.330;12.374;2023-02-03T16:34:32;8.90;1.00
12438;DHT22;6283;51.330;12.374;2023-02-03T16:37:31;8.70;1.00
12438;DHT22;6283;51.330;12.374;2023-02-03T16:40:20;8.90;1.00
12438;DHT22;6283;51.330;12.374;2023-02-03T16:43:09;8.80;1.00
12438;DHT22;6283;51.330;12.374;2023-02-03T16:45:56;8.90;1.00
12438;DHT22;6283;51.330;12.374;2023-02-03T16:48:40;8.70;1.00
12438;DHT22;6283;51.330;12.374;2023-02-03T16:51:25;8.80;1.00
12438;DHT22;6283;51.330;12.374;2023-02-03T16:53:53;8.80;1.00
12438;DHT22;6283;51.330;12.374;2023-02-03T16:56:19;8.70;1.00
12438;DHT22;6283;51.330;12.374;2023-02-03T16:58:44;8.80;1.00
12438;DHT22;6283;51.330;12.374;2023-02-03T17:01:11;8.70;1.00
12438;DHT22;6283;51.330;12.374;2023-02-03T17:03:37;8.80;1.00
12438;DHT22;6283;51.330;12.374;2023-02-03T17:06:05;8.60;1.00
12438;DHT22;6283;51.330;12.374;2023-02-03T17:08:32;8.40;1.00
12438;DHT22;6283;51.330;12.374;2023-02-03T17:11:23;8.50;1.00
12438;DHT22;6283;51.330;12.374;2023-02-03T17:13:50;8.50;1.00
12438;DHT22;6283;51.330;12.374;2023-02-03T17:16:22;8.30;1.00
12438;DHT22;6283;51.330;12.374;2023-02-03T17:18:49;8.60;1.00
12438;DHT22;6283;51.330;12.374;2023-02-03T17:21:24;8.50;1.00
12438;DHT22;6283;51.330;12.374;2023-02-03T17:23:50;8.70;1.00
12438;DHT22;6283;51.330;12.374;2023-02-03T17:26:16;8.60;1.00
12438;DHT22;6283;51.330;12.374;2023-02-03T17:28:42;8.80;1.00
12438;DHT22;6283;51.330;12.374;2023-02-03T17:31:15;8.60;1.00
12438;DHT22;6283;51.330;12.374;2023-02-03T17:33:41;8.60;1.00
12438;DHT22;6283;51.330;12.374;2023-02-03T17:36:13;8.70;1.00
12438;DHT22;6283;51.330;12.374;2023-02-03T17:38:41;8.50;1.00
12438;DHT22;6283;51.330;12.374;2023-02-03T17:41:13;8.80;1.00
12438;DHT22;6283;51.330;12.374;2023-02-03T17:43:39;8.60;1.00
12438;DHT22;6283;51.330;12.374;2023-02-03T17:46:05;8.30;1.00
12438;DHT22;6283;51.330;12.374;2023-02-03T17:48:31;8.60;1.00
12438;DHT22;6283;51.330;12.374;2023-02-03T17:51:13;8.40;1.00
12438;DHT22;6283;51.330;12.374;2023-02-03T17:53:39;8.50;1.00
12438;DHT22;6283;51.330;12.374;2023-02-03T17:56:13;8.50;1.00
12438;DHT22;6283;51.330;12.374;2023-02-03T17:58:40;8.30;1.00
12438;DHT22;6283;51.330;12.374;2023-02-03T18:01:10;8.50;1.00
12438;DHT22;6283;51.330;12.374;2023-02-03T18:06:38;8.20;1.00
12438;DHT22;6283;51.330;12.374;2023-02-03T18:09:05;8.50;1.00
12438;DHT22;6283;51.330;12.374;2023-02-03T18:11:33;8.20;1.00
12438;DHT22;6283;51.330;12.374;2023-02-03T18:13:59;8.20;1.00
12438;DHT22;6283;51.330;12.374;2023-02-03T18:16:26;8.20;1.00
12438;DHT22;6283;51.330;12.374;2023-02-03T18:18:58;8.20;1.00
12438;DHT22;6283;51.330;12.374;2023-02-03T18:21:25;8.10;1.00
12438;DHT22;6283;51.330;12.374;2023-02-03T18:23:51;8.00;1.00
12438;DHT22;6283;51.330;12.374;2023-02-03T18:26:21;8.40;1.00
12438;DHT22;6283;51.330;12.374;2023-02-03T18:28:50;8.00;1.00
12438;DHT22;6283;51.330;12.374;2023-02-03T18:31:16;8.20;1.00
12438;DHT22;6283;51.330;12.374;2023-02-03T18:33:43;8.20;1.00
12438;DHT22;6283;51.330;12.374;2023-02-03T18:36:09;7.80;1.00
12438;DHT22;6283;51.330;12.374;2023-02-03T18:38:39;8.00;1.00
12438;DHT22;6283;51.330;12.374;2023-02-03T18:41:14;7.90;1.00
12438;DHT22;6283;51.330;12.374;2023-02-03T18:43:40;8.20;1.00
12438;DHT22;6283;51.330;12.374;2023-02-03T18:46:11;7.80;1.00
12438;DHT22;6283;51.330;12.374;2023-02-03T18:48:37;8.10;1.00
12438;DHT22;6283;51.330;12.374;2023-02-03T18:51:07;8.10;1.00
12438;DHT22;6283;51.330;12.374;2023-02-03T18:53:33;8.10;1.00
12438;DHT22;6283;51.330;12.374;2023-02-03T18:55:58;7.90;1.00